Cathlamet, Washington
Current Conditions -  °F | °C
As of 8:15 AM on Tuesday 21 Oct 2014 (Local Time) from KKLS Reporting Station
Overcast Overcast  
Wind Chill: 13°   Ceiling: 7000
Heat Index: 13°   Visibility: 10mi
Dew Point:   Wind: 12mph
Humidity: 77%   Direction: 140°SE
Pressure: 29.97"   Gusts: 16mph
Location:  46.2°N, 123.38°W
Report Text: KKLS 211515Z AUTO 14010G14KT 10SM FEW012 BKN070 OVC110 13/09 A2997 RMK AO1
Loading
Personal Weather Stations






























Interactive Weather Map
Tropical Storm Tracking
New forecast layout! Learn more

10-Day Weather Forecast

Advertisements
Track Severe Weather on mobile